Hlavní strana
METAR-TAF:

METAR-TAF

Letiště :

Treviso, Itálie

zeměpisná šířka: 45-39N, zeměpisná délka: 012-11E, výška: 18 m

Aktuální stav počasí

Zpráva byla vytvořena před 36 minutami, v 18:50 UTC
Severoseverozápadní vítr 3 kt, proměnlivý mezi západoseverozápadním a severoseverovýchodním
Teplota 24°C
Vlhkost vzduchu 78%
Tlak 1017 hPa
Viditelnost 10 km a více
Skoro jasno ve výšce 3000 ft

METAR: LIPH 271850Z 34003KT 300V020 9999 FEW030 24/20 Q1017

Čas: 21:26 (19:26 UTC)

Předpověď počasí

Zpráva byla vytvořena před 2 hodinami a 26 minutami, v 17:00 UTC
Předpověď platná od 27 v 18 UTC do 28 v 18 UTC
vítr z různých směrů 5 kt
Viditelnost 10 km a více
Polojasno ve výšce 3000 ft
Dočasný
od 27 v 18 UTC do 27 v 21 UTC
bouřka, déšť
Dočasný
od 28 v 12 UTC do 28 v 18 UTC
bouřka, déšť

TAF: LIPH 271700Z 2718/2818 VRB05KT 9999 SCT030 TEMPO 2718/2721 TSRA TEMPO 2812/2818 TSRA

Stav a předpovědi počasí z více než 4 000 letišť (zprávy METAR a TAF).

Červené a žluté tečky na mapě představují dostupné meteorologické stanice.

Když kurzor umístíte na tečku, zobrazí se název stanice.

Pak kliknutím zobrazíte stav a předpověď počasí.

Chcete-li změnit mapu, kliknutím na zelené tlačítko se znaménkem +mapu přiblížíte, kliknutím na zelené tlačítko se znaménkem – mapu oddálíte a kliknutím na zelené šipky přejdete na sousední mapy.


METAR-TAF: